Terminal Aerodrome Forecast
Issued by NWS Brownsville, TX

Home | Current Version | Previous Version | Text Only | Print | Product List | Glossary On
Versions: 1 2 3 4 5 6 7 8 9 10 11 12 13 14 15 16
146
FTUS44 KBRO 182320
TAFHRL
TAF
KHRL 182320Z 1900/1924 12016G22KT P6SM SKC
     FM190300 14009KT P6SM SCT250
     FM191500 16010KT P6SM SCT030
     FM191900 13013G19KT P6SM FEW250=

USA.gov is the U.S. government's official web portal to all federal, state and local government web resources and services.